sensor_id;sensor_type;location;lat;lon;timestamp;temperature;humidity
80706;DHT22;70229;48.010;7.852;2023-08-20T00:01:12;24.80;83.10
80706;DHT22;70229;48.010;7.852;2023-08-20T00:03:40;24.60;84.10
80706;DHT22;70229;48.010;7.852;2023-08-20T00:06:06;24.60;84.70
80706;DHT22;70229;48.010;7.852;2023-08-20T00:08:32;24.40;85.00
80706;DHT22;70229;48.010;7.852;2023-08-20T00:10:57;24.40;85.30
80706;DHT22;70229;48.010;7.852;2023-08-20T00:13:23;24.40;85.40
80706;DHT22;70229;48.010;7.852;2023-08-20T00:15:49;24.50;84.90
80706;DHT22;70229;48.010;7.852;2023-08-20T00:18:15;24.40;84.10
80706;DHT22;70229;48.010;7.852;2023-08-20T00:20:40;24.30;85.10
80706;DHT22;70229;48.010;7.852;2023-08-20T00:23:06;24.30;84.50
80706;DHT22;70229;48.010;7.852;2023-08-20T00:25:32;24.40;83.80
80706;DHT22;70229;48.010;7.852;2023-08-20T00:27:58;24.20;83.90
80706;DHT22;70229;48.010;7.852;2023-08-20T00:30:23;24.20;84.00
80706;DHT22;70229;48.010;7.852;2023-08-20T00:32:49;24.30;84.30
80706;DHT22;70229;48.010;7.852;2023-08-20T00:35:15;24.10;84.70
80706;DHT22;70229;48.010;7.852;2023-08-20T00:37:41;23.90;84.80
80706;DHT22;70229;48.010;7.852;2023-08-20T00:40:06;24.00;84.90
80706;DHT22;70229;48.010;7.852;2023-08-20T00:42:32;23.90;85.20
80706;DHT22;70229;48.010;7.852;2023-08-20T00:44:58;23.90;85.40
80706;DHT22;70229;48.010;7.852;2023-08-20T00:47:24;23.80;85.70
80706;DHT22;70229;48.010;7.852;2023-08-20T00:49:49;23.70;85.30
80706;DHT22;70229;48.010;7.852;2023-08-20T00:52:16;23.70;85.00
80706;DHT22;70229;48.010;7.852;2023-08-20T00:54:45;23.70;85.00
80706;DHT22;70229;48.010;7.852;2023-08-20T00:57:13;23.80;84.70
80706;DHT22;70229;48.010;7.852;2023-08-20T00:59:38;23.90;84.00
80706;DHT22;70229;48.010;7.852;2023-08-20T01:02:04;23.90;84.20
80706;DHT22;70229;48.010;7.852;2023-08-20T01:04:30;23.90;84.80
80706;DHT22;70229;48.010;7.852;2023-08-20T01:10:14;23.80;84.60
80706;DHT22;70229;48.010;7.852;2023-08-20T01:12:43;23.70;85.00
80706;DHT22;70229;48.010;7.852;2023-08-20T01:15:10;23.70;85.00
80706;DHT22;70229;48.010;7.852;2023-08-20T01:17:40;23.80;85.00
80706;DHT22;70229;48.010;7.852;2023-08-20T01:20:07;23.90;84.90
80706;DHT22;70229;48.010;7.852;2023-08-20T01:28:30;23.70;85.20
80706;DHT22;70229;48.010;7.852;2023-08-20T01:30:58;23.70;84.00
80706;DHT22;70229;48.010;7.852;2023-08-20T01:33:24;23.80;84.60
80706;DHT22;70229;48.010;7.852;2023-08-20T01:35:53;23.70;85.00
80706;DHT22;70229;48.010;7.852;2023-08-20T01:38:19;23.80;85.10
80706;DHT22;70229;48.010;7.852;2023-08-20T01:40:45;23.70;85.40
80706;DHT22;70229;48.010;7.852;2023-08-20T01:43:10;23.70;85.80
80706;DHT22;70229;48.010;7.852;2023-08-20T01:45:36;23.60;85.30
80706;DHT22;70229;48.010;7.852;2023-08-20T01:48:02;23.60;85.90
80706;DHT22;70229;48.010;7.852;2023-08-20T01:50:29;23.50;86.10
80706;DHT22;70229;48.010;7.852;2023-08-20T01:52:54;23.40;86.70
80706;DHT22;70229;48.010;7.852;2023-08-20T01:55:20;23.30;87.00
80706;DHT22;70229;48.010;7.852;2023-08-20T01:57:46;23.50;86.90
80706;DHT22;70229;48.010;7.852;2023-08-20T02:00:12;23.50;87.00
80706;DHT22;70229;48.010;7.852;2023-08-20T02:02:37;23.50;87.50
80706;DHT22;70229;48.010;7.852;2023-08-20T02:05:03;23.60;87.00
80706;DHT22;70229;48.010;7.852;2023-08-20T02:07:29;23.50;87.30
80706;DHT22;70229;48.010;7.852;2023-08-20T02:09:54;23.30;87.70
80706;DHT22;70229;48.010;7.852;2023-08-20T02:12:20;23.20;88.20
80706;DHT22;70229;48.010;7.852;2023-08-20T02:14:45;23.10;88.50
80706;DHT22;70229;48.010;7.852;2023-08-20T02:17:11;23.10;88.20
80706;DHT22;70229;48.010;7.852;2023-08-20T02:19:38;23.10;87.90
80706;DHT22;70229;48.010;7.852;2023-08-20T02:22:03;23.10;88.10
80706;DHT22;70229;48.010;7.852;2023-08-20T02:24:29;23.10;88.00
80706;DHT22;70229;48.010;7.852;2023-08-20T02:26:55;23.20;87.90
80706;DHT22;70229;48.010;7.852;2023-08-20T02:29:20;23.20;88.30
80706;DHT22;70229;48.010;7.852;2023-08-20T02:31:46;23.20;88.20
80706;DHT22;70229;48.010;7.852;2023-08-20T02:34:12;23.10;88.10
80706;DHT22;70229;48.010;7.852;2023-08-20T02:36:37;23.20;88.00
80706;DHT22;70229;48.010;7.852;2023-08-20T02:39:03;23.00;88.70
80706;DHT22;70229;48.010;7.852;2023-08-20T02:41:34;23.00;89.20
80706;DHT22;70229;48.010;7.852;2023-08-20T02:44:01;23.00;89.20
80706;DHT22;70229;48.010;7.852;2023-08-20T02:46:27;23.00;89.00
80706;DHT22;70229;48.010;7.852;2023-08-20T02:48:52;23.10;88.90
80706;DHT22;70229;48.010;7.852;2023-08-20T02:51:18;23.10;88.90
80706;DHT22;70229;48.010;7.852;2023-08-20T02:53:43;23.00;89.60
80706;DHT22;70229;48.010;7.852;2023-08-20T02:56:09;23.00;89.00
80706;DHT22;70229;48.010;7.852;2023-08-20T02:58:34;23.00;88.50
80706;DHT22;70229;48.010;7.852;2023-08-20T03:01:00;23.10;87.70
80706;DHT22;70229;48.010;7.852;2023-08-20T03:03:26;23.10;86.80
80706;DHT22;70229;48.010;7.852;2023-08-20T03:05:51;23.10;86.20
80706;DHT22;70229;48.010;7.852;2023-08-20T03:08:17;23.10;85.60
80706;DHT22;70229;48.010;7.852;2023-08-20T03:10:42;23.20;84.90
80706;DHT22;70229;48.010;7.852;2023-08-20T03:13:08;23.30;85.00
80706;DHT22;70229;48.010;7.852;2023-08-20T03:15:34;23.40;84.60
80706;DHT22;70229;48.010;7.852;2023-08-20T03:17:59;23.60;84.30
80706;DHT22;70229;48.010;7.852;2023-08-20T03:20:25;23.60;85.60
80706;DHT22;70229;48.010;7.852;2023-08-20T03:22:51;23.40;86.80
80706;DHT22;70229;48.010;7.852;2023-08-20T03:25:16;23.50;86.60
80706;DHT22;70229;48.010;7.852;2023-08-20T03:27:42;23.50;87.50
80706;DHT22;70229;48.010;7.852;2023-08-20T03:30:08;23.40;88.50
80706;DHT22;70229;48.010;7.852;2023-08-20T03:32:37;23.80;86.40
80706;DHT22;70229;48.010;7.852;2023-08-20T03:35:02;24.10;85.40
80706;DHT22;70229;48.010;7.852;2023-08-20T03:37:28;23.90;86.40
80706;DHT22;70229;48.010;7.852;2023-08-20T03:39:54;23.80;87.40
80706;DHT22;70229;48.010;7.852;2023-08-20T03:42:19;23.60;87.60
80706;DHT22;70229;48.010;7.852;2023-08-20T03:44:45;23.30;88.80
80706;DHT22;70229;48.010;7.852;2023-08-20T03:47:10;23.30;89.10
80706;DHT22;70229;48.010;7.852;2023-08-20T03:49:37;23.20;89.20
80706;DHT22;70229;48.010;7.852;2023-08-20T03:52:02;23.00;90.00
80706;DHT22;70229;48.010;7.852;2023-08-20T03:54:29;23.00;90.20
80706;DHT22;70229;48.010;7.852;2023-08-20T03:56:55;23.00;90.30
80706;DHT22;70229;48.010;7.852;2023-08-20T03:59:21;22.80;90.20
80706;DHT22;70229;48.010;7.852;2023-08-20T04:01:46;22.80;90.30
80706;DHT22;70229;48.010;7.852;2023-08-20T04:04:12;22.80;90.30
80706;DHT22;70229;48.010;7.852;2023-08-20T04:06:38;22.80;90.40
80706;DHT22;70229;48.010;7.852;2023-08-20T04:09:03;22.70;90.50
80706;DHT22;70229;48.010;7.852;2023-08-20T04:11:29;22.80;90.40
80706;DHT22;70229;48.010;7.852;2023-08-20T04:13:55;22.40;90.40
80706;DHT22;70229;48.010;7.852;2023-08-20T04:16:20;22.80;90.50
80706;DHT22;70229;48.010;7.852;2023-08-20T04:18:46;22.90;90.40
80706;DHT22;70229;48.010;7.852;2023-08-20T04:21:11;22.80;90.30
80706;DHT22;70229;48.010;7.852;2023-08-20T04:23:37;23.10;90.40
80706;DHT22;70229;48.010;7.852;2023-08-20T04:26:03;21.90;90.10
80706;DHT22;70229;48.010;7.852;2023-08-20T04:28:28;22.90;90.40
80706;DHT22;70229;48.010;7.852;2023-08-20T04:30:54;22.80;90.50
80706;DHT22;70229;48.010;7.852;2023-08-20T04:33:20;22.80;90.60
80706;DHT22;70229;48.010;7.852;2023-08-20T04:35:46;22.80;90.60
80706;DHT22;70229;48.010;7.852;2023-08-20T04:38:13;23.00;90.60
80706;DHT22;70229;48.010;7.852;2023-08-20T04:40:39;22.80;90.60
80706;DHT22;70229;48.010;7.852;2023-08-20T04:43:04;22.90;90.50
80706;DHT22;70229;48.010;7.852;2023-08-20T04:45:30;22.90;90.50
80706;DHT22;70229;48.010;7.852;2023-08-20T04:47:55;22.90;90.40
80706;DHT22;70229;48.010;7.852;2023-08-20T04:50:21;22.90;90.50
80706;DHT22;70229;48.010;7.852;2023-08-20T04:52:47;23.00;90.40
80706;DHT22;70229;48.010;7.852;2023-08-20T04:55:12;23.10;90.40
80706;DHT22;70229;48.010;7.852;2023-08-20T04:57:38;23.00;90.60
80706;DHT22;70229;48.010;7.852;2023-08-20T05:00:04;22.80;90.90
80706;DHT22;70229;48.010;7.852;2023-08-20T05:02:30;22.70;91.00
80706;DHT22;70229;48.010;7.852;2023-08-20T05:04:56;22.90;90.90
80706;DHT22;70229;48.010;7.852;2023-08-20T05:07:22;22.90;90.60
80706;DHT22;70229;48.010;7.852;2023-08-20T05:09:47;22.90;91.00
80706;DHT22;70229;48.010;7.852;2023-08-20T05:12:14;22.80;91.20
80706;DHT22;70229;48.010;7.852;2023-08-20T05:14:40;22.80;91.20
80706;DHT22;70229;48.010;7.852;2023-08-20T05:17:05;22.90;91.20
80706;DHT22;70229;48.010;7.852;2023-08-20T05:19:31;22.70;91.40
80706;DHT22;70229;48.010;7.852;2023-08-20T05:21:57;22.80;91.10
80706;DHT22;70229;48.010;7.852;2023-08-20T05:24:24;23.10;91.00
80706;DHT22;70229;48.010;7.852;2023-08-20T05:27:12;22.90;90.90
80706;DHT22;70229;48.010;7.852;2023-08-20T05:29:40;22.80;90.70
80706;DHT22;70229;48.010;7.852;2023-08-20T05:32:07;22.80;90.40
80706;DHT22;70229;48.010;7.852;2023-08-20T05:34:32;23.00;90.20
80706;DHT22;70229;48.010;7.852;2023-08-20T05:36:59;23.10;89.80
80706;DHT22;70229;48.010;7.852;2023-08-20T05:39:25;23.10;89.80
80706;DHT22;70229;48.010;7.852;2023-08-20T05:41:56;23.20;89.90
80706;DHT22;70229;48.010;7.852;2023-08-20T05:44:22;23.10;90.10
80706;DHT22;70229;48.010;7.852;2023-08-20T05:46:48;23.10;89.60
80706;DHT22;70229;48.010;7.852;2023-08-20T05:49:14;23.10;89.50
80706;DHT22;70229;48.010;7.852;2023-08-20T05:51:42;23.20;90.10
80706;DHT22;70229;48.010;7.852;2023-08-20T05:54:07;23.00;90.20
80706;DHT22;70229;48.010;7.852;2023-08-20T05:56:33;23.10;90.20
80706;DHT22;70229;48.010;7.852;2023-08-20T05:58:58;23.20;90.20
80706;DHT22;70229;48.010;7.852;2023-08-20T06:01:24;23.30;90.30
80706;DHT22;70229;48.010;7.852;2023-08-20T06:03:49;23.30;90.10
80706;DHT22;70229;48.010;7.852;2023-08-20T06:06:15;23.40;90.10
80706;DHT22;70229;48.010;7.852;2023-08-20T06:08:41;23.40;90.10
80706;DHT22;70229;48.010;7.852;2023-08-20T06:11:06;23.50;90.20
80706;DHT22;70229;48.010;7.852;2023-08-20T06:13:32;23.50;90.00
80706;DHT22;70229;48.010;7.852;2023-08-20T06:15:57;23.50;90.20
80706;DHT22;70229;48.010;7.852;2023-08-20T06:18:23;23.60;90.20
80706;DHT22;70229;48.010;7.852;2023-08-20T06:20:48;23.60;90.20
80706;DHT22;70229;48.010;7.852;2023-08-20T06:23:14;23.70;88.80
80706;DHT22;70229;48.010;7.852;2023-08-20T06:25:40;23.80;88.60
80706;DHT22;70229;48.010;7.852;2023-08-20T06:28:05;24.00;88.80
80706;DHT22;70229;48.010;7.852;2023-08-20T06:30:31;24.10;88.30
80706;DHT22;70229;48.010;7.852;2023-08-20T06:32:56;24.20;88.60
80706;DHT22;70229;48.010;7.852;2023-08-20T06:35:22;24.20;86.40
80706;DHT22;70229;48.010;7.852;2023-08-20T06:37:47;24.40;86.60
80706;DHT22;70229;48.010;7.852;2023-08-20T06:40:13;24.40;87.50
80706;DHT22;70229;48.010;7.852;2023-08-20T06:42:41;24.50;88.00
80706;DHT22;70229;48.010;7.852;2023-08-20T06:45:07;24.60;87.90
80706;DHT22;70229;48.010;7.852;2023-08-20T06:47:34;24.50;86.30
80706;DHT22;70229;48.010;7.852;2023-08-20T06:50:00;24.60;86.20
80706;DHT22;70229;48.010;7.852;2023-08-20T06:52:25;24.80;85.80
80706;DHT22;70229;48.010;7.852;2023-08-20T06:54:51;24.90;85.60
80706;DHT22;70229;48.010;7.852;2023-08-20T06:57:16;24.90;84.60
80706;DHT22;70229;48.010;7.852;2023-08-20T06:59:42;24.80;84.40
80706;DHT22;70229;48.010;7.852;2023-08-20T07:02:09;25.00;84.20
80706;DHT22;70229;48.010;7.852;2023-08-20T07:04:35;25.10;83.50
80706;DHT22;70229;48.010;7.852;2023-08-20T07:07:01;25.10;84.30
80706;DHT22;70229;48.010;7.852;2023-08-20T07:09:26;25.00;84.30
80706;DHT22;70229;48.010;7.852;2023-08-20T07:11:52;25.20;84.00
80706;DHT22;70229;48.010;7.852;2023-08-20T07:14:17;25.30;84.60
80706;DHT22;70229;48.010;7.852;2023-08-20T07:16:43;25.30;84.20
80706;DHT22;70229;48.010;7.852;2023-08-20T07:19:08;25.40;83.80
80706;DHT22;70229;48.010;7.852;2023-08-20T07:21:34;25.50;83.10
80706;DHT22;70229;48.010;7.852;2023-08-20T07:24:00;25.50;82.50
80706;DHT22;70229;48.010;7.852;2023-08-20T07:26:26;25.40;82.80
80706;DHT22;70229;48.010;7.852;2023-08-20T07:28:51;25.40;83.00
80706;DHT22;70229;48.010;7.852;2023-08-20T07:31:27;25.50;82.50
80706;DHT22;70229;48.010;7.852;2023-08-20T07:33:54;25.70;82.70
80706;DHT22;70229;48.010;7.852;2023-08-20T07:36:21;25.70;82.50
80706;DHT22;70229;48.010;7.852;2023-08-20T07:38:47;25.80;82.20
80706;DHT22;70229;48.010;7.852;2023-08-20T07:41:13;26.00;82.90
80706;DHT22;70229;48.010;7.852;2023-08-20T07:43:39;26.20;81.70
80706;DHT22;70229;48.010;7.852;2023-08-20T07:46:06;26.30;81.00
80706;DHT22;70229;48.010;7.852;2023-08-20T07:48:32;26.50;81.30
80706;DHT22;70229;48.010;7.852;2023-08-20T07:50:58;26.60;81.20
80706;DHT22;70229;48.010;7.852;2023-08-20T07:53:23;26.60;80.80
80706;DHT22;70229;48.010;7.852;2023-08-20T07:55:49;26.70;80.50
80706;DHT22;70229;48.010;7.852;2023-08-20T07:58:14;26.70;80.10
80706;DHT22;70229;48.010;7.852;2023-08-20T08:00:40;26.90;80.10
80706;DHT22;70229;48.010;7.852;2023-08-20T08:03:06;26.80;80.40
80706;DHT22;70229;48.010;7.852;2023-08-20T08:05:31;27.00;80.90
80706;DHT22;70229;48.010;7.852;2023-08-20T08:07:57;27.20;80.10
80706;DHT22;70229;48.010;7.852;2023-08-20T08:10:23;27.30;78.90
80706;DHT22;70229;48.010;7.852;2023-08-20T08:12:48;27.40;79.80
80706;DHT22;70229;48.010;7.852;2023-08-20T08:15:14;27.30;79.10
80706;DHT22;70229;48.010;7.852;2023-08-20T08:17:40;27.40;78.60
80706;DHT22;70229;48.010;7.852;2023-08-20T08:20:06;27.50;78.80
80706;DHT22;70229;48.010;7.852;2023-08-20T08:22:32;27.50;78.40
80706;DHT22;70229;48.010;7.852;2023-08-20T08:24:57;27.50;78.10
80706;DHT22;70229;48.010;7.852;2023-08-20T08:27:23;27.50;77.50
80706;DHT22;70229;48.010;7.852;2023-08-20T08:29:48;27.50;77.90
80706;DHT22;70229;48.010;7.852;2023-08-20T08:32:14;27.70;78.50
80706;DHT22;70229;48.010;7.852;2023-08-20T08:34:39;27.80;77.60
80706;DHT22;70229;48.010;7.852;2023-08-20T08:37:05;27.70;77.20
80706;DHT22;70229;48.010;7.852;2023-08-20T08:39:31;27.90;77.30
80706;DHT22;70229;48.010;7.852;2023-08-20T08:42:02;27.70;76.80
80706;DHT22;70229;48.010;7.852;2023-08-20T08:44:37;27.80;77.60
80706;DHT22;70229;48.010;7.852;2023-08-20T08:47:05;27.90;76.90
80706;DHT22;70229;48.010;7.852;2023-08-20T08:49:36;27.70;77.70
80706;DHT22;70229;48.010;7.852;2023-08-20T08:52:27;27.80;77.20
80706;DHT22;70229;48.010;7.852;2023-08-20T08:54:53;27.90;76.90
80706;DHT22;70229;48.010;7.852;2023-08-20T08:57:19;28.20;76.10
80706;DHT22;70229;48.010;7.852;2023-08-20T08:59:44;28.40;76.70
80706;DHT22;70229;48.010;7.852;2023-08-20T09:02:11;28.50;75.50
80706;DHT22;70229;48.010;7.852;2023-08-20T09:04:39;28.60;75.80
80706;DHT22;70229;48.010;7.852;2023-08-20T09:07:05;28.50;75.10
80706;DHT22;70229;48.010;7.852;2023-08-20T09:09:44;28.50;74.30
80706;DHT22;70229;48.010;7.852;2023-08-20T09:12:18;28.50;74.80
80706;DHT22;70229;48.010;7.852;2023-08-20T09:14:49;28.50;73.60
80706;DHT22;70229;48.010;7.852;2023-08-20T09:17:17;28.60;73.60
80706;DHT22;70229;48.010;7.852;2023-08-20T09:19:45;28.70;74.70
80706;DHT22;70229;48.010;7.852;2023-08-20T09:22:18;28.80;73.20
80706;DHT22;70229;48.010;7.852;2023-08-20T09:25:19;28.80;73.20
80706;DHT22;70229;48.010;7.852;2023-08-20T09:28:14;28.90;72.40
80706;DHT22;70229;48.010;7.852;2023-08-20T09:30:56;29.00;72.50
80706;DHT22;70229;48.010;7.852;2023-08-20T09:33:36;29.20;72.60
80706;DHT22;70229;48.010;7.852;2023-08-20T09:36:07;29.30;71.00
80706;DHT22;70229;48.010;7.852;2023-08-20T09:38:42;29.40;70.60
80706;DHT22;70229;48.010;7.852;2023-08-20T09:41:08;29.60;74.20
80706;DHT22;70229;48.010;7.852;2023-08-20T09:49:19;29.90;72.20
80706;DHT22;70229;48.010;7.852;2023-08-20T09:51:51;29.90;70.80
80706;DHT22;70229;48.010;7.852;2023-08-20T09:54:34;30.00;71.00
80706;DHT22;70229;48.010;7.852;2023-08-20T17:47:28;31.00;70.00
80706;DHT22;70229;48.010;7.852;2023-08-20T17:49:53;31.00;70.30
80706;DHT22;70229;48.010;7.852;2023-08-20T17:52:21;30.90;70.50
80706;DHT22;70229;48.010;7.852;2023-08-20T17:54:47;30.90;70.50
80706;DHT22;70229;48.010;7.852;2023-08-20T17:57:12;30.90;70.10
80706;DHT22;70229;48.010;7.852;2023-08-20T17:59:38;30.90;70.40
80706;DHT22;70229;48.010;7.852;2023-08-20T18:02:04;30.80;70.70
80706;DHT22;70229;48.010;7.852;2023-08-20T18:04:30;30.70;71.10
80706;DHT22;70229;48.010;7.852;2023-08-20T18:06:55;30.80;70.90
80706;DHT22;70229;48.010;7.852;2023-08-20T18:09:21;30.60;71.20
80706;DHT22;70229;48.010;7.852;2023-08-20T18:11:47;30.60;71.30
80706;DHT22;70229;48.010;7.852;2023-08-20T18:14:12;30.60;71.40
80706;DHT22;70229;48.010;7.852;2023-08-20T18:16:38;30.60;71.70
80706;DHT22;70229;48.010;7.852;2023-08-20T18:19:03;30.50;71.60
80706;DHT22;70229;48.010;7.852;2023-08-20T18:21:29;30.50;72.50
80706;DHT22;70229;48.010;7.852;2023-08-20T18:23:55;30.40;72.50
80706;DHT22;70229;48.010;7.852;2023-08-20T18:26:21;30.40;72.50
80706;DHT22;70229;48.010;7.852;2023-08-20T18:28:46;30.30;72.90
80706;DHT22;70229;48.010;7.852;2023-08-20T18:31:12;30.20;73.40
80706;DHT22;70229;48.010;7.852;2023-08-20T18:33:38;30.10;74.10
80706;DHT22;70229;48.010;7.852;2023-08-20T18:36:03;30.10;75.00
80706;DHT22;70229;48.010;7.852;2023-08-20T18:41:02;29.90;75.30
80706;DHT22;70229;48.010;7.852;2023-08-20T18:43:32;29.90;75.50
80706;DHT22;70229;48.010;7.852;2023-08-20T18:45:58;29.90;75.50
80706;DHT22;70229;48.010;7.852;2023-08-20T18:48:26;29.80;75.70
80706;DHT22;70229;48.010;7.852;2023-08-20T18:50:51;29.70;76.00
80706;DHT22;70229;48.010;7.852;2023-08-20T18:53:17;29.70;76.50
80706;DHT22;70229;48.010;7.852;2023-08-20T18:55:42;29.50;77.40
80706;DHT22;70229;48.010;7.852;2023-08-20T18:58:08;29.40;78.10
80706;DHT22;70229;48.010;7.852;2023-08-20T19:00:37;29.40;78.70
80706;DHT22;70229;48.010;7.852;2023-08-20T19:03:03;29.20;79.30
80706;DHT22;70229;48.010;7.852;2023-08-20T19:05:30;29.10;79.90
80706;DHT22;70229;48.010;7.852;2023-08-20T19:07:56;29.10;80.10
80706;DHT22;70229;48.010;7.852;2023-08-20T19:10:22;29.00;80.50
80706;DHT22;70229;48.010;7.852;2023-08-20T19:12:47;28.90;81.10
80706;DHT22;70229;48.010;7.852;2023-08-20T19:15:13;28.90;81.70
80706;DHT22;70229;48.010;7.852;2023-08-20T19:17:39;28.90;81.90
80706;DHT22;70229;48.010;7.852;2023-08-20T19:20:05;28.70;81.90
80706;DHT22;70229;48.010;7.852;2023-08-20T19:22:34;28.60;82.30
80706;DHT22;70229;48.010;7.852;2023-08-20T19:25:00;28.60;82.80
80706;DHT22;70229;48.010;7.852;2023-08-20T19:27:26;28.50;83.00
80706;DHT22;70229;48.010;7.852;2023-08-20T19:29:51;28.40;83.10
80706;DHT22;70229;48.010;7.852;2023-08-20T19:32:17;28.40;82.40
80706;DHT22;70229;48.010;7.852;2023-08-20T19:34:43;28.30;82.70
80706;DHT22;70229;48.010;7.852;2023-08-20T19:37:09;28.30;82.40
80706;DHT22;70229;48.010;7.852;2023-08-20T19:39:37;28.20;82.80
80706;DHT22;70229;48.010;7.852;2023-08-20T19:42:03;28.20;83.00
80706;DHT22;70229;48.010;7.852;2023-08-20T19:44:29;28.20;82.30
80706;DHT22;70229;48.010;7.852;2023-08-20T19:46:54;28.20;82.50
80706;DHT22;70229;48.010;7.852;2023-08-20T19:49:20;28.20;83.30
80706;DHT22;70229;48.010;7.852;2023-08-20T19:51:46;28.20;83.00
80706;DHT22;70229;48.010;7.852;2023-08-20T19:54:11;28.00;83.60
80706;DHT22;70229;48.010;7.852;2023-08-20T19:56:37;28.10;83.70
80706;DHT22;70229;48.010;7.852;2023-08-20T19:59:04;28.00;83.10
80706;DHT22;70229;48.010;7.852;2023-08-20T20:01:30;28.00;83.50
80706;DHT22;70229;48.010;7.852;2023-08-20T20:03:56;27.90;85.50
80706;DHT22;70229;48.010;7.852;2023-08-20T20:06:23;27.90;83.90
80706;DHT22;70229;48.010;7.852;2023-08-20T20:08:51;27.80;85.10
80706;DHT22;70229;48.010;7.852;2023-08-20T20:11:17;27.90;85.10
80706;DHT22;70229;48.010;7.852;2023-08-20T20:13:43;27.80;84.80
80706;DHT22;70229;48.010;7.852;2023-08-20T20:16:09;27.80;84.70
80706;DHT22;70229;48.010;7.852;2023-08-20T20:18:34;27.80;85.50
80706;DHT22;70229;48.010;7.852;2023-08-20T20:21:00;27.70;85.30
80706;DHT22;70229;48.010;7.852;2023-08-20T20:23:26;27.70;85.60
80706;DHT22;70229;48.010;7.852;2023-08-20T20:25:52;27.60;85.50
80706;DHT22;70229;48.010;7.852;2023-08-20T20:28:18;27.60;85.50
80706;DHT22;70229;48.010;7.852;2023-08-20T20:30:47;27.70;85.50
80706;DHT22;70229;48.010;7.852;2023-08-20T20:33:13;27.70;84.80
80706;DHT22;70229;48.010;7.852;2023-08-20T20:35:38;27.70;85.60
80706;DHT22;70229;48.010;7.852;2023-08-20T20:38:04;27.60;85.10
80706;DHT22;70229;48.010;7.852;2023-08-20T20:40:30;27.70;86.10
80706;DHT22;70229;48.010;7.852;2023-08-20T20:42:57;27.60;85.80
80706;DHT22;70229;48.010;7.852;2023-08-20T20:45:22;27.50;85.70
80706;DHT22;70229;48.010;7.852;2023-08-20T20:47:48;27.50;85.30
80706;DHT22;70229;48.010;7.852;2023-08-20T20:50:13;27.50;86.10
80706;DHT22;70229;48.010;7.852;2023-08-20T20:52:39;27.40;85.50
80706;DHT22;70229;48.010;7.852;2023-08-20T20:55:05;27.40;87.20
80706;DHT22;70229;48.010;7.852;2023-08-20T20:57:31;27.30;87.30
80706;DHT22;70229;48.010;7.852;2023-08-20T20:59:57;27.30;87.10
80706;DHT22;70229;48.010;7.852;2023-08-20T21:02:22;27.20;87.50
80706;DHT22;70229;48.010;7.852;2023-08-20T21:04:48;27.20;86.80
80706;DHT22;70229;48.010;7.852;2023-08-20T21:07:14;27.20;88.10
80706;DHT22;70229;48.010;7.852;2023-08-20T21:09:40;27.20;88.20
80706;DHT22;70229;48.010;7.852;2023-08-20T21:12:05;27.20;88.50
80706;DHT22;70229;48.010;7.852;2023-08-20T21:14:31;27.00;88.70
80706;DHT22;70229;48.010;7.852;2023-08-20T21:16:56;26.80;89.30
80706;DHT22;70229;48.010;7.852;2023-08-20T21:19:22;26.90;89.10
80706;DHT22;70229;48.010;7.852;2023-08-20T21:21:48;26.90;89.70
80706;DHT22;70229;48.010;7.852;2023-08-20T21:24:13;26.90;89.50
80706;DHT22;70229;48.010;7.852;2023-08-20T21:26:39;26.80;89.00
80706;DHT22;70229;48.010;7.852;2023-08-20T21:29:05;26.80;89.00
80706;DHT22;70229;48.010;7.852;2023-08-20T21:31:30;26.90;89.10
80706;DHT22;70229;48.010;7.852;2023-08-20T21:33:56;26.90;89.20
80706;DHT22;70229;48.010;7.852;2023-08-20T21:36:21;26.90;88.20
80706;DHT22;70229;48.010;7.852;2023-08-20T21:38:47;26.90;88.50
80706;DHT22;70229;48.010;7.852;2023-08-20T21:41:12;26.90;88.40
80706;DHT22;70229;48.010;7.852;2023-08-20T21:43:38;27.00;88.10
80706;DHT22;70229;48.010;7.852;2023-08-20T21:46:05;26.90;88.10
80706;DHT22;70229;48.010;7.852;2023-08-20T21:48:31;26.90;87.80
80706;DHT22;70229;48.010;7.852;2023-08-20T21:50:56;27.00;88.00
80706;DHT22;70229;48.010;7.852;2023-08-20T21:53:22;26.90;88.60
80706;DHT22;70229;48.010;7.852;2023-08-20T21:55:55;26.80;88.80
80706;DHT22;70229;48.010;7.852;2023-08-20T21:58:21;26.80;89.10
80706;DHT22;70229;48.010;7.852;2023-08-20T22:00:47;26.80;89.50
80706;DHT22;70229;48.010;7.852;2023-08-20T22:03:13;26.70;89.60
80706;DHT22;70229;48.010;7.852;2023-08-20T22:05:38;26.60;90.10
80706;DHT22;70229;48.010;7.852;2023-08-20T22:08:04;26.60;90.30
80706;DHT22;70229;48.010;7.852;2023-08-20T22:10:30;26.70;90.30
80706;DHT22;70229;48.010;7.852;2023-08-20T22:12:55;26.60;90.30
80706;DHT22;70229;48.010;7.852;2023-08-20T22:15:21;26.70;90.10
80706;DHT22;70229;48.010;7.852;2023-08-20T22:17:47;26.60;90.60
80706;DHT22;70229;48.010;7.852;2023-08-20T22:20:12;26.50;90.70
80706;DHT22;70229;48.010;7.852;2023-08-20T22:22:38;26.50;91.00
80706;DHT22;70229;48.010;7.852;2023-08-20T22:25:08;26.50;91.10
80706;DHT22;70229;48.010;7.852;2023-08-20T22:27:34;26.30;91.20
80706;DHT22;70229;48.010;7.852;2023-08-20T22:30:01;26.30;91.30
80706;DHT22;70229;48.010;7.852;2023-08-20T22:32:27;26.30;91.30
80706;DHT22;70229;48.010;7.852;2023-08-20T22:34:53;26.30;91.30
80706;DHT22;70229;48.010;7.852;2023-08-20T22:37:22;26.30;91.50
80706;DHT22;70229;48.010;7.852;2023-08-20T22:39:49;26.20;91.50
80706;DHT22;70229;48.010;7.852;2023-08-20T22:42:15;26.10;91.40
80706;DHT22;70229;48.010;7.852;2023-08-20T22:44:42;26.20;91.40
80706;DHT22;70229;48.010;7.852;2023-08-20T22:47:07;26.20;91.60
80706;DHT22;70229;48.010;7.852;2023-08-20T22:49:33;26.20;91.60
80706;DHT22;70229;48.010;7.852;2023-08-20T22:51:58;26.20;91.60
80706;DHT22;70229;48.010;7.852;2023-08-20T22:54:24;26.10;91.80
80706;DHT22;70229;48.010;7.852;2023-08-20T22:56:49;26.10;91.70
80706;DHT22;70229;48.010;7.852;2023-08-20T22:59:15;26.10;91.50
80706;DHT22;70229;48.010;7.852;2023-08-20T23:01:41;26.10;91.70
80706;DHT22;70229;48.010;7.852;2023-08-20T23:04:06;26.10;91.70
80706;DHT22;70229;48.010;7.852;2023-08-20T23:06:32;26.10;91.20
80706;DHT22;70229;48.010;7.852;2023-08-20T23:08:58;26.00;91.30
80706;DHT22;70229;48.010;7.852;2023-08-20T23:11:23;25.80;91.70
80706;DHT22;70229;48.010;7.852;2023-08-20T23:13:50;25.70;91.90
80706;DHT22;70229;48.010;7.852;2023-08-20T23:16:15;25.70;91.90
80706;DHT22;70229;48.010;7.852;2023-08-20T23:18:41;25.80;91.80
80706;DHT22;70229;48.010;7.852;2023-08-20T23:21:09;25.80;91.70
80706;DHT22;70229;48.010;7.852;2023-08-20T23:23:34;25.80;91.70
80706;DHT22;70229;48.010;7.852;2023-08-20T23:26:00;25.70;91.80
80706;DHT22;70229;48.010;7.852;2023-08-20T23:28:26;25.70;91.90
80706;DHT22;70229;48.010;7.852;2023-08-20T23:30:51;25.70;91.90
80706;DHT22;70229;48.010;7.852;2023-08-20T23:33:17;25.70;91.80